createdAt,value
2019-04-11T00:00:52.121Z,6.60
2019-04-11T00:03:21.659Z,6.50
2019-04-11T00:05:51.167Z,6.60
2019-04-11T00:08:21.651Z,6.50
2019-04-11T00:10:51.304Z,6.50
2019-04-11T00:13:24.242Z,6.50
2019-04-11T00:15:51.908Z,6.50
2019-04-11T00:18:22.835Z,6.50
2019-04-11T00:20:52.758Z,6.50
2019-04-11T00:23:22.377Z,6.40
2019-04-11T00:25:51.723Z,6.40
2019-04-11T00:28:21.596Z,6.40
2019-04-11T00:30:51.104Z,6.40
2019-04-11T00:33:20.435Z,6.40
2019-04-11T00:35:50.186Z,6.30
2019-04-11T00:38:19.622Z,6.30
2019-04-11T00:40:49.157Z,6.30
2019-04-11T00:43:30.849Z,6.30
2019-04-11T00:45:49.766Z,6.30
2019-04-11T00:48:19.709Z,6.20
2019-04-11T00:50:50.188Z,6.20
2019-04-11T00:53:20.501Z,6.30
2019-04-11T00:55:49.975Z,6.30
2019-04-11T00:58:19.365Z,6.20
2019-04-11T01:00:48.769Z,6.20
2019-04-11T01:03:18.152Z,6.30
2019-04-11T01:05:47.859Z,6.20
2019-04-11T01:08:17.724Z,6.20
2019-04-11T01:10:47.802Z,6.20
2019-04-11T01:13:17.611Z,6.10
2019-04-11T01:15:54.831Z,6.10
2019-04-11T01:18:24.211Z,6.10
2019-04-11T01:20:53.700Z,6.20
2019-04-11T01:23:23.152Z,6.10
2019-04-11T01:25:53.347Z,6.10
2019-04-11T01:28:22.731Z,6.00
2019-04-11T01:31:01.093Z,6.10
2019-04-11T01:33:31.681Z,6.00
2019-04-11T01:36:01.142Z,6.00
2019-04-11T01:38:32.501Z,6.00
2019-04-11T01:41:02.463Z,6.00
2019-04-11T01:43:32.420Z,6.00
2019-04-11T01:46:02.931Z,5.90
2019-04-11T01:48:39.846Z,5.90
2019-04-11T01:51:09.645Z,6.00
2019-04-11T01:53:40.563Z,6.00
2019-04-11T01:56:09.978Z,6.00
2019-04-11T01:58:40.542Z,5.90
2019-04-11T02:01:28.532Z,5.90
2019-04-11T02:04:10.449Z,5.90
2019-04-11T02:06:40.332Z,5.80
2019-04-11T02:09:13.820Z,5.90
2019-04-11T02:11:43.162Z,5.90
2019-04-11T02:14:16.141Z,5.90
2019-04-11T02:16:43.487Z,5.90
2019-04-11T02:19:12.760Z,5.80
2019-04-11T02:21:42.324Z,5.80
2019-04-11T02:24:30.697Z,5.80
2019-04-11T02:27:08.570Z,5.70
2019-04-11T02:29:37.914Z,5.70
2019-04-11T02:32:07.633Z,5.70
2019-04-11T02:34:37.158Z,5.70
2019-04-11T02:37:07.084Z,5.60
2019-04-11T02:39:36.600Z,5.60
2019-04-11T02:42:06.618Z,5.70
2019-04-11T02:44:52.379Z,5.60
2019-04-11T02:47:11.551Z,5.60
2019-04-11T02:49:39.247Z,5.60
2019-04-11T02:52:09.550Z,5.60
2019-04-11T02:54:40.943Z,5.50
2019-04-11T02:57:13.972Z,5.50
2019-04-11T02:59:45.204Z,5.50
2019-04-11T03:02:19.476Z,5.50
2019-04-11T03:04:48.821Z,5.40
2019-04-11T03:07:18.411Z,5.40
2019-04-11T03:09:48.910Z,5.40
2019-04-11T03:12:19.273Z,5.40
2019-04-11T03:15:09.346Z,5.40
2019-04-11T03:17:27.056Z,5.30
2019-04-11T03:20:02.757Z,5.30
2019-04-11T03:22:24.726Z,5.30
2019-04-11T03:24:55.376Z,5.30
2019-04-11T03:27:28.053Z,5.30
2019-04-11T03:29:57.623Z,5.20
2019-04-11T03:35:51.212Z,5.20
2019-04-11T03:37:53.995Z,5.20
2019-04-11T03:40:22.749Z,5.10
2019-04-11T03:42:43.189Z,5.10
2019-04-11T03:45:27.617Z,5.10
2019-04-11T03:47:43.537Z,5.10
2019-04-11T03:50:13.025Z,5.10
2019-04-11T03:52:37.835Z,5.10
2019-04-11T03:55:08.637Z,5.10
2019-04-11T03:57:39.415Z,5.10
2019-04-11T04:00:10.110Z,5.10
2019-04-11T04:02:41.306Z,5.00
2019-04-11T04:05:10.821Z,5.00
2019-04-11T04:07:40.687Z,5.00
2019-04-11T04:10:13.085Z,5.00
2019-04-11T04:12:43.072Z,5.00
2019-04-11T04:15:41.036Z,5.00
2019-04-11T04:18:36.266Z,4.90
2019-04-11T04:21:19.946Z,4.90
2019-04-11T04:23:51.894Z,4.80
2019-04-11T04:26:22.853Z,4.80
2019-04-11T04:28:53.469Z,4.70
2019-04-11T04:31:24.312Z,4.60
2019-04-11T04:33:55.397Z,4.60
2019-04-11T04:36:27.304Z,4.60
2019-04-11T04:38:57.786Z,4.50
2019-04-11T04:41:38.427Z,4.50
2019-04-11T04:44:01.816Z,4.50
2019-04-11T04:46:48.653Z,4.50
2019-04-11T04:49:02.562Z,4.50
2019-04-11T04:51:31.992Z,4.50
2019-04-11T04:54:01.470Z,4.40
2019-04-11T04:56:32.368Z,4.40
2019-04-11T04:59:02.701Z,4.50
2019-04-11T05:01:32.522Z,4.50
2019-04-11T05:04:04.524Z,4.60
2019-04-11T05:06:34.610Z,4.60
2019-04-11T05:09:06.560Z,4.70
2019-04-11T05:11:36.177Z,4.70
2019-04-11T05:14:07.071Z,4.70
2019-04-11T05:16:37.621Z,4.70
2019-04-11T05:19:07.027Z,4.70
2019-04-11T05:21:37.167Z,4.70
2019-04-11T05:24:06.534Z,4.80
2019-04-11T05:26:35.835Z,4.80
2019-04-11T05:29:05.191Z,4.80
2019-04-11T05:31:34.496Z,4.80
2019-04-11T05:34:03.778Z,4.90
2019-04-11T05:36:33.114Z,5.00
2019-04-11T05:39:02.443Z,5.00
2019-04-11T05:41:31.688Z,5.10
2019-04-11T05:44:03.499Z,5.10
2019-04-11T05:46:42.154Z,5.20
2019-04-11T05:49:09.299Z,5.30
2019-04-11T05:51:41.661Z,5.30
2019-04-11T05:54:10.711Z,5.40
2019-04-11T05:56:40.071Z,5.50
2019-04-11T05:59:15.274Z,5.60
2019-04-11T06:01:50.790Z,5.70
2019-04-11T06:04:42.711Z,5.70
2019-04-11T06:07:19.133Z,5.90
2019-04-11T06:09:50.687Z,6.10
2019-04-11T06:12:41.788Z,6.30
2019-04-11T06:15:20.002Z,6.50
2019-04-11T06:17:50.316Z,6.80
2019-04-11T06:20:39.685Z,7.20
2019-04-11T06:23:35.103Z,7.80
2019-04-11T06:26:11.878Z,8.30
2019-04-11T06:28:42.340Z,8.70
2019-04-11T06:31:40.375Z,9.10
2019-04-11T06:34:11.416Z,9.80
2019-04-11T06:37:03.483Z,10.10
2019-04-11T06:39:37.784Z,10.30
2019-04-11T06:42:25.610Z,10.50
2019-04-11T06:45:29.423Z,10.80
2019-04-11T06:48:26.330Z,11.10
2019-04-11T06:51:07.933Z,11.30
2019-04-11T06:53:44.169Z,11.50
2019-04-11T06:56:41.633Z,11.70
2019-04-11T06:59:34.460Z,12.10
2019-04-11T07:02:16.516Z,12.30
2019-04-11T07:04:44.076Z,12.60
2019-04-11T07:07:13.581Z,12.80
2019-04-11T07:10:07.722Z,12.90
2019-04-11T07:13:03.385Z,13.00
2019-04-11T07:15:44.293Z,13.00
2019-04-11T07:18:31.334Z,12.80
2019-04-11T07:21:08.910Z,13.00
2019-04-11T07:23:56.165Z,13.30
2019-04-11T07:26:50.777Z,13.50
2019-04-11T07:29:38.625Z,13.80
2019-04-11T07:32:18.487Z,14.00
2019-04-11T07:35:05.896Z,14.40
2019-04-11T07:37:36.863Z,14.50
2019-04-11T07:40:29.199Z,15.10
2019-04-11T07:43:14.969Z,14.60
2019-04-11T07:46:03.270Z,15.00
2019-04-11T07:48:42.691Z,15.10
2019-04-11T07:51:32.079Z,15.80
2019-04-11T07:54:09.565Z,15.30
2019-04-11T07:56:48.586Z,15.40
2019-04-11T07:59:37.701Z,16.20
2019-04-11T08:02:26.833Z,16.60
2019-04-11T08:05:19.104Z,16.20
2019-04-11T08:08:06.820Z,16.70
2019-04-11T08:10:48.471Z,16.40
2019-04-11T08:13:22.870Z,16.80
2019-04-11T08:16:10.553Z,17.00
2019-04-11T08:18:59.324Z,17.00
2019-04-11T08:21:46.471Z,17.00
2019-04-11T08:24:22.546Z,17.60
2019-04-11T08:27:11.415Z,18.80
2019-04-11T08:29:40.838Z,19.40
2019-04-11T08:32:41.881Z,20.00
2019-04-11T08:35:30.350Z,20.00
2019-04-11T08:38:05.271Z,19.50
2019-04-11T08:40:39.998Z,19.60
2019-04-11T08:43:19.238Z,20.20
2019-04-11T08:45:53.917Z,20.90
2019-04-11T08:48:24.670Z,19.90
2019-04-11T08:50:58.873Z,18.10
2019-04-11T08:53:46.031Z,17.20
2019-04-11T08:56:15.621Z,16.50
2019-04-11T08:59:35.882Z,16.60
2019-04-11T09:02:06.843Z,16.70
2019-04-11T09:05:06.900Z,15.80
2019-04-11T09:07:35.902Z,15.70
2019-04-11T09:10:24.167Z,16.80
2019-04-11T09:13:00.648Z,17.30
2019-04-11T09:15:48.954Z,17.20
2019-04-11T09:18:18.358Z,15.80
2019-04-11T09:21:05.559Z,14.40
2019-04-11T09:23:35.668Z,13.80
2019-04-11T09:26:31.887Z,13.20
2019-04-11T09:29:06.791Z,13.10
2019-04-11T09:31:58.042Z,12.50
2019-04-11T09:34:35.686Z,12.10
2019-04-11T09:37:40.003Z,11.40
2019-04-11T09:40:28.410Z,11.40
2019-04-11T09:43:19.945Z,11.30
2019-04-11T09:46:04.032Z,11.20
2019-04-11T09:48:46.199Z,11.30
2019-04-11T09:51:29.591Z,11.40
2019-04-11T09:54:12.317Z,11.40
2019-04-11T09:57:04.478Z,11.50
2019-04-11T10:00:05.930Z,11.50
2019-04-11T10:02:53.525Z,11.70
2019-04-11T10:05:34.179Z,11.60
2019-04-11T10:08:28.277Z,11.50
2019-04-11T10:11:15.573Z,11.40
2019-04-11T10:14:02.619Z,11.50
2019-04-11T10:16:50.611Z,11.60
2019-04-11T10:19:42.292Z,11.90
2019-04-11T10:22:40.448Z,11.80
2019-04-11T10:25:16.791Z,11.40
2019-04-11T10:28:04.852Z,11.80
2019-04-11T10:30:59.175Z,12.00
2019-04-11T10:33:50.359Z,12.00
2019-04-11T10:36:34.928Z,12.00
2019-04-11T10:39:23.455Z,11.60
2019-04-11T10:41:55.984Z,11.40
2019-04-11T10:44:45.749Z,11.30
2019-04-11T10:47:17.894Z,11.20
2019-04-11T10:50:21.721Z,11.00
2019-04-11T10:52:53.623Z,10.80
2019-04-11T10:55:46.078Z,10.50
2019-04-11T10:58:30.941Z,10.30
2019-04-11T11:01:18.042Z,10.30
2019-04-11T11:03:57.600Z,10.20
2019-04-11T11:06:29.605Z,10.40
2019-04-11T11:09:17.681Z,10.40
2019-04-11T11:11:54.800Z,10.50
2019-04-11T11:14:52.404Z,10.60
2019-04-11T11:18:04.373Z,10.70
2019-04-11T11:20:39.237Z,10.80
2019-04-11T11:23:31.070Z,10.80
2019-04-11T11:26:09.028Z,11.00
2019-04-11T11:29:07.362Z,11.10
2019-04-11T11:31:40.819Z,10.90
2019-04-11T11:34:17.408Z,11.00
2019-04-11T11:37:04.821Z,10.80
2019-04-11T11:39:41.416Z,10.60
2019-04-11T11:42:29.014Z,10.60
2019-04-11T11:45:02.970Z,10.80
2019-04-11T11:47:55.289Z,11.00
2019-04-11T11:50:24.930Z,11.20
2019-04-11T11:53:18.491Z,11.30
2019-04-11T11:55:49.544Z,11.30
2019-04-11T11:58:42.696Z,11.30
2019-04-11T12:01:13.509Z,11.60
2019-04-11T12:04:11.309Z,11.30
2019-04-11T12:06:41.216Z,11.70
2019-04-11T12:09:32.788Z,12.20
2019-04-11T12:12:07.530Z,12.60
2019-04-11T12:14:51.658Z,12.90
2019-04-11T12:17:40.557Z,13.10
2019-04-11T12:20:16.827Z,13.10
2019-04-11T12:22:49.202Z,13.00
2019-04-11T12:25:23.567Z,12.70
2019-04-11T12:28:21.357Z,12.50
2019-04-11T12:30:57.976Z,12.30
2019-04-11T12:33:50.067Z,12.10
2019-04-11T12:36:26.467Z,11.90
2019-04-11T12:39:13.879Z,11.70
2019-04-11T12:42:05.510Z,11.60
2019-04-11T12:44:42.996Z,11.60
2019-04-11T12:47:20.660Z,11.70
2019-04-11T12:50:07.667Z,11.80
2019-04-11T12:52:56.014Z,11.90
2019-04-11T12:55:47.094Z,11.80
2019-04-11T12:58:27.959Z,11.80
2019-04-11T13:01:20.429Z,11.70
2019-04-11T13:04:24.147Z,11.60
2019-04-11T13:07:13.035Z,11.60
2019-04-11T13:09:51.796Z,11.70
2019-04-11T13:12:52.018Z,11.60
2019-04-11T13:15:40.387Z,11.80
2019-04-11T13:18:29.043Z,12.00
2019-04-11T13:21:20.289Z,12.20
2019-04-11T13:24:11.377Z,12.20
2019-04-11T13:26:58.359Z,12.10
2019-04-11T13:30:04.982Z,12.10
2019-04-11T13:32:57.699Z,12.10
2019-04-11T13:35:49.191Z,11.80
2019-04-11T13:38:28.610Z,11.50
2019-04-11T13:41:14.965Z,11.80
2019-04-11T13:44:03.311Z,11.80
2019-04-11T13:46:51.653Z,11.60
2019-04-11T13:49:40.009Z,11.60
2019-04-11T13:52:28.363Z,11.60
2019-04-11T13:55:08.951Z,11.50
2019-04-11T13:57:57.274Z,11.30
2019-04-11T14:00:44.387Z,11.10
2019-04-11T14:03:40.260Z,10.80
2019-04-11T14:06:16.333Z,10.60
2019-04-11T14:09:10.699Z,10.50
2019-04-11T14:11:43.522Z,10.40
2019-04-11T14:14:18.689Z,10.30
2019-04-11T14:17:07.046Z,10.20
2019-04-11T14:20:04.543Z,10.10
2019-04-11T14:22:43.600Z,10.10
2019-04-11T14:25:28.894Z,10.10
2019-04-11T14:28:00.139Z,10.10
2019-04-11T14:30:40.633Z,10.10
2019-04-11T14:33:10.017Z,10.10
2019-04-11T14:35:54.609Z,10.10
2019-04-11T14:38:24.593Z,10.20
2019-04-11T14:41:11.851Z,10.30
2019-04-11T14:43:48.807Z,10.30
2019-04-11T14:46:43.303Z,10.30
2019-04-11T14:49:14.592Z,10.50
2019-04-11T14:52:01.979Z,10.60
2019-04-11T14:54:36.845Z,10.60
2019-04-11T14:57:15.463Z,10.80
2019-04-11T14:59:56.547Z,10.80
2019-04-11T15:02:51.325Z,10.80
2019-04-11T15:05:44.879Z,10.70
2019-04-11T15:08:17.756Z,10.70
2019-04-11T15:10:52.895Z,10.60
2019-04-11T15:13:25.321Z,10.70
2019-04-11T15:16:22.945Z,10.70
2019-04-11T15:18:56.677Z,10.70
2019-04-11T15:21:53.960Z,10.60
2019-04-11T15:24:23.757Z,10.60
2019-04-11T15:27:11.128Z,10.60
2019-04-11T15:29:45.718Z,10.50
2019-04-11T15:32:30.491Z,10.50
2019-04-11T15:35:11.808Z,10.50
2019-04-11T15:37:59.194Z,10.30
2019-04-11T15:40:44.431Z,10.20
2019-04-11T15:43:42.108Z,9.90
2019-04-11T15:46:14.765Z,9.70
2019-04-11T15:49:04.378Z,9.40
2019-04-11T15:51:38.251Z,9.20
2019-04-11T15:54:26.593Z,9.10
2019-04-11T15:57:17.833Z,9.00
2019-04-11T16:00:13.769Z,8.80
2019-04-11T16:02:57.632Z,8.60
2019-04-11T16:05:49.269Z,8.50
2019-04-11T16:08:31.414Z,8.60
2019-04-11T16:11:13.454Z,8.60
2019-04-11T16:14:14.158Z,8.50
2019-04-11T16:16:58.876Z,8.40
2019-04-11T16:19:39.091Z,8.30
2019-04-11T16:22:24.732Z,8.10
2019-04-11T16:24:56.020Z,8.10
2019-04-11T16:27:43.102Z,8.10
2019-04-11T16:30:13.526Z,8.00
2019-04-11T16:32:45.894Z,8.00
2019-04-11T16:35:36.940Z,8.00
2019-04-11T16:38:06.901Z,7.80
2019-04-11T16:41:07.339Z,7.80
2019-04-11T16:43:37.059Z,7.80
2019-04-11T16:46:28.328Z,7.70
2019-04-11T16:48:57.621Z,7.60
2019-04-11T16:51:30.991Z,7.60
2019-04-11T16:53:57.989Z,7.60
2019-04-11T16:56:27.355Z,7.50
2019-04-11T16:58:56.672Z,7.50
2019-04-11T17:01:26.066Z,7.50
2019-04-11T17:03:55.741Z,7.50
2019-04-11T17:06:43.404Z,7.40
2019-04-11T17:09:26.574Z,7.40
2019-04-11T17:11:56.805Z,7.30
2019-04-11T17:14:28.251Z,7.30
2019-04-11T17:17:00.653Z,7.30
2019-04-11T17:19:28.904Z,7.30
2019-04-11T17:21:58.239Z,7.30
2019-04-11T17:24:27.600Z,7.30
2019-04-11T17:26:56.917Z,7.30
2019-04-11T17:29:26.231Z,7.20
2019-04-11T17:31:56.135Z,7.20
2019-04-11T17:34:25.974Z,7.20
2019-04-11T17:36:55.370Z,7.20
2019-04-11T17:39:24.660Z,7.20
2019-04-11T17:41:54.037Z,7.10
2019-04-11T17:44:23.318Z,7.10
2019-04-11T17:46:56.632Z,7.10
2019-04-11T17:49:23.810Z,7.10
2019-04-11T17:51:56.003Z,7.10
2019-04-11T17:54:24.894Z,7.00
2019-04-11T17:56:57.501Z,7.00
2019-04-11T17:59:27.983Z,7.10
2019-04-11T18:01:56.824Z,7.10
2019-04-11T18:04:26.102Z,7.10
2019-04-11T18:06:55.459Z,7.10
2019-04-11T18:09:26.300Z,7.00
2019-04-11T18:11:56.161Z,7.00
2019-04-11T18:14:26.174Z,6.90
2019-04-11T18:16:55.569Z,6.90
2019-04-11T18:19:25.562Z,6.90
2019-04-11T18:21:54.843Z,6.90
2019-04-11T18:24:24.207Z,6.80
2019-04-11T18:26:53.518Z,6.80
2019-04-11T18:29:23.526Z,6.80
2019-04-11T18:31:52.938Z,6.70
2019-04-11T18:34:22.322Z,6.70
2019-04-11T18:36:51.658Z,6.70
2019-04-11T18:39:21.084Z,6.60
2019-04-11T18:41:50.523Z,6.70
2019-04-11T18:44:19.919Z,6.70
2019-04-11T18:46:49.317Z,6.60
2019-04-11T18:49:19.445Z,6.70
2019-04-11T18:51:50.800Z,6.60
2019-04-11T18:54:20.740Z,6.70
2019-04-11T18:56:50.056Z,6.60
2019-04-11T18:59:19.409Z,6.60
2019-04-11T19:01:48.818Z,6.60
2019-04-11T19:04:18.216Z,6.50
2019-04-11T19:06:47.522Z,6.50
2019-04-11T19:09:16.910Z,6.50
2019-04-11T19:11:47.010Z,6.40
2019-04-11T19:14:16.706Z,6.40
2019-04-11T19:16:46.866Z,6.40
2019-04-11T19:19:18.393Z,6.40
2019-04-11T19:21:50.743Z,6.40
2019-04-11T19:24:18.583Z,6.40
2019-04-11T19:26:47.864Z,6.40
2019-04-11T19:29:17.369Z,6.40
2019-04-11T19:31:46.788Z,6.40
2019-04-11T19:34:16.202Z,6.30
2019-04-11T19:36:45.502Z,6.30
2019-04-11T19:39:14.898Z,6.30
2019-04-11T19:41:47.870Z,6.30
2019-04-11T19:44:16.841Z,6.30
2019-04-11T19:46:46.159Z,6.30
2019-04-11T19:49:15.569Z,6.20
2019-04-11T19:51:44.829Z,6.10
2019-04-11T19:54:14.114Z,6.10
2019-04-11T19:56:47.883Z,6.20
2019-04-11T19:59:17.267Z,6.10
2019-04-11T20:01:46.680Z,6.20
2019-04-11T20:04:15.994Z,6.20
2019-04-11T20:06:45.419Z,6.10
2019-04-11T20:09:14.843Z,6.10
2019-04-11T20:11:44.922Z,6.20
2019-04-11T20:14:15.555Z,6.10
2019-04-11T20:16:48.370Z,6.10
2019-04-11T20:19:15.801Z,6.10
2019-04-11T20:21:45.206Z,6.10
2019-04-11T20:24:15.175Z,6.10
2019-04-11T20:26:44.823Z,6.10
2019-04-11T20:29:14.119Z,6.10
2019-04-11T20:31:43.454Z,6.10
2019-04-11T20:34:12.849Z,6.00
2019-04-11T20:36:42.420Z,6.10
2019-04-11T20:39:14.978Z,6.00
2019-04-11T20:41:42.750Z,6.10
2019-04-11T20:44:12.051Z,6.00
2019-04-11T20:46:41.450Z,6.00
2019-04-11T20:49:10.739Z,6.00
2019-04-11T20:51:40.067Z,6.00
2019-04-11T20:54:09.485Z,6.10
2019-04-11T20:56:40.348Z,6.00
2019-04-11T20:59:10.318Z,5.90
2019-04-11T21:01:40.332Z,5.90
2019-04-11T21:04:09.743Z,5.90
2019-04-11T21:06:39.110Z,5.90
2019-04-11T21:09:11.208Z,6.00
2019-04-11T21:11:40.502Z,6.00
2019-04-11T21:14:09.894Z,5.90
2019-04-11T21:16:39.277Z,5.80
2019-04-11T21:19:08.674Z,5.80
2019-04-11T21:21:38.088Z,5.80
2019-04-11T21:24:07.405Z,5.70
2019-04-11T21:26:36.696Z,5.70
2019-04-11T21:29:06.138Z,5.60
2019-04-11T21:31:35.516Z,5.60
2019-04-11T21:34:04.847Z,5.60
2019-04-11T21:36:34.186Z,5.60
2019-04-11T21:39:04.501Z,5.70
2019-04-11T21:41:36.028Z,5.60
2019-04-11T21:44:06.089Z,5.60
2019-04-11T21:46:38.158Z,5.50
2019-04-11T21:49:07.041Z,5.50
2019-04-11T21:51:36.589Z,5.50
2019-04-11T21:54:05.891Z,5.50
2019-04-11T21:56:35.223Z,5.50
2019-04-11T21:59:04.535Z,5.50
2019-04-11T22:01:34.988Z,5.50
2019-04-11T22:04:06.940Z,5.50
2019-04-11T22:06:36.354Z,5.40
2019-04-11T22:09:08.255Z,5.40
2019-04-11T22:11:38.391Z,5.30
2019-04-11T22:14:10.990Z,5.40
2019-04-11T22:16:39.489Z,5.30
2019-04-11T22:19:08.909Z,5.40
2019-04-11T22:21:38.284Z,5.30
2019-04-11T22:24:07.678Z,5.40
2019-04-11T22:26:36.998Z,5.40
2019-04-11T22:29:06.420Z,5.40
2019-04-11T22:31:35.872Z,5.50
2019-04-11T22:34:13.539Z,5.40
2019-04-11T22:36:42.821Z,5.40
2019-04-11T22:39:12.230Z,5.50
2019-04-11T22:41:41.551Z,5.50
2019-04-11T22:44:10.909Z,5.50
2019-04-11T22:46:40.261Z,5.50
2019-04-11T22:49:09.710Z,5.40
2019-04-11T22:51:42.741Z,5.40
2019-04-11T22:54:12.980Z,5.40
2019-04-11T22:56:41.914Z,5.40
2019-04-11T22:59:13.651Z,5.40
2019-04-11T23:01:46.605Z,5.30
2019-04-11T23:04:16.818Z,5.30
2019-04-11T23:06:44.907Z,5.30
2019-04-11T23:09:16.627Z,5.20
2019-04-11T23:11:46.910Z,5.30
2019-04-11T23:14:16.576Z,5.20
2019-04-11T23:16:46.251Z,5.20
2019-04-11T23:19:15.597Z,5.20
2019-04-11T23:21:44.986Z,5.20
2019-04-11T23:24:14.365Z,5.20
2019-04-11T23:26:43.721Z,5.20
2019-04-11T23:29:15.817Z,5.20
2019-04-11T23:31:44.179Z,5.20
2019-04-11T23:34:13.482Z,5.20
2019-04-11T23:36:42.895Z,5.20
2019-04-11T23:39:12.164Z,5.20
2019-04-11T23:41:41.478Z,5.20
2019-04-11T23:44:10.916Z,5.20
2019-04-11T23:46:40.324Z,5.20
2019-04-11T23:49:09.607Z,5.10
2019-04-11T23:51:39.016Z,5.10
2019-04-11T23:54:08.401Z,5.10
2019-04-11T23:56:37.770Z,5.10
2019-04-11T23:59:07.145Z,5.10
